sensor_id;sensor_type;location;lat;lon;timestamp;pressure;altitude;pressure_sealevel;temperature;humidity
75745;BME280;64359;51.366;-0.222;2023-02-12T00:00:31;103466.31;;;22.06;48.29
75745;BME280;64359;51.366;-0.222;2023-02-12T00:01:34;103462.41;;;22.05;48.48
75745;BME280;64359;51.366;-0.222;2023-02-12T00:02:36;103459.52;;;22.05;48.36
75745;BME280;64359;51.366;-0.222;2023-02-12T00:03:39;103463.10;;;22.06;48.45
75745;BME280;64359;51.366;-0.222;2023-02-12T00:04:41;103463.48;;;22.06;48.50
75745;BME280;64359;51.366;-0.222;2023-02-12T00:05:44;103465.02;;;22.04;48.36
75745;BME280;64359;51.366;-0.222;2023-02-12T00:06:46;103467.64;;;22.03;48.40
75745;BME280;64359;51.366;-0.222;2023-02-12T00:07:49;103470.56;;;22.03;48.41
75745;BME280;64359;51.366;-0.222;2023-02-12T00:08:52;103468.32;;;22.01;48.39
75745;BME280;64359;51.366;-0.222;2023-02-12T00:09:55;103467.61;;;22.01;48.51
75745;BME280;64359;51.366;-0.222;2023-02-12T00:10:57;103464.92;;;22.01;48.49
75745;BME280;64359;51.366;-0.222;2023-02-12T00:11:59;103468.61;;;22.00;48.49
75745;BME280;64359;51.366;-0.222;2023-02-12T00:13:02;103470.84;;;21.99;48.64
75745;BME280;64359;51.366;-0.222;2023-02-12T00:14:04;103469.89;;;21.97;48.68
75745;BME280;64359;51.366;-0.222;2023-02-12T00:15:08;103472.36;;;21.98;48.43
75745;BME280;64359;51.366;-0.222;2023-02-12T00:16:12;103471.92;;;21.97;48.47
75745;BME280;64359;51.366;-0.222;2023-02-12T00:17:14;103469.58;;;21.97;48.58
75745;BME280;64359;51.366;-0.222;2023-02-12T00:18:17;103471.92;;;21.97;48.59
75745;BME280;64359;51.366;-0.222;2023-02-12T00:19:19;103475.15;;;21.98;48.51
75745;BME280;64359;51.366;-0.222;2023-02-12T00:20:21;103469.84;;;21.96;48.52
75745;BME280;64359;51.366;-0.222;2023-02-12T00:21:24;103469.19;;;21.95;48.61
75745;BME280;64359;51.366;-0.222;2023-02-12T00:22:27;103468.02;;;21.94;48.29
75745;BME280;64359;51.366;-0.222;2023-02-12T00:23:29;103468.44;;;21.94;48.55
75745;BME280;64359;51.366;-0.222;2023-02-12T00:24:31;103466.54;;;21.92;48.62
75745;BME280;64359;51.366;-0.222;2023-02-12T00:25:34;103463.56;;;21.91;48.44
75745;BME280;64359;51.366;-0.222;2023-02-12T00:26:36;103466.90;;;21.90;48.49
75745;BME280;64359;51.366;-0.222;2023-02-12T00:27:38;103463.06;;;21.87;48.43
75745;BME280;64359;51.366;-0.222;2023-02-12T00:28:41;103472.33;;;21.90;48.45
75745;BME280;64359;51.366;-0.222;2023-02-12T00:29:43;103472.16;;;21.90;48.42
75745;BME280;64359;51.366;-0.222;2023-02-12T00:30:45;103473.09;;;21.90;48.28
75745;BME280;64359;51.366;-0.222;2023-02-12T00:31:48;103469.72;;;21.89;48.43
75745;BME280;64359;51.366;-0.222;2023-02-12T00:32:50;103473.23;;;21.88;48.45
75745;BME280;64359;51.366;-0.222;2023-02-12T00:33:53;103470.56;;;21.88;48.49
75745;BME280;64359;51.366;-0.222;2023-02-12T00:34:55;103472.30;;;21.87;48.33
75745;BME280;64359;51.366;-0.222;2023-02-12T00:35:57;103474.30;;;21.87;48.41
75745;BME280;64359;51.366;-0.222;2023-02-12T00:37:00;103474.84;;;21.86;48.45
75745;BME280;64359;51.366;-0.222;2023-02-12T00:38:02;103473.84;;;21.86;48.44
75745;BME280;64359;51.366;-0.222;2023-02-12T00:39:04;103473.89;;;21.85;48.39
75745;BME280;64359;51.366;-0.222;2023-02-12T00:40:09;103474.77;;;21.85;48.42
75745;BME280;64359;51.366;-0.222;2023-02-12T00:41:12;103470.69;;;21.84;48.45
75745;BME280;64359;51.366;-0.222;2023-02-12T00:42:14;103475.08;;;21.84;48.45
75745;BME280;64359;51.366;-0.222;2023-02-12T00:43:17;103473.73;;;21.83;48.24
75745;BME280;64359;51.366;-0.222;2023-02-12T00:44:19;103477.70;;;21.83;48.34
75745;BME280;64359;51.366;-0.222;2023-02-12T00:45:21;103476.27;;;21.83;48.35
75745;BME280;64359;51.366;-0.222;2023-02-12T00:46:24;103473.27;;;21.82;48.27
75745;BME280;64359;51.366;-0.222;2023-02-12T00:47:26;103473.14;;;21.81;48.26
75745;BME280;64359;51.366;-0.222;2023-02-12T00:48:29;103465.24;;;21.76;48.31
75745;BME280;64359;51.366;-0.222;2023-02-12T00:49:31;103468.79;;;21.79;48.09
75745;BME280;64359;51.366;-0.222;2023-02-12T00:50:34;103472.39;;;21.79;48.28
75745;BME280;64359;51.366;-0.222;2023-02-12T00:51:37;103473.82;;;21.80;48.14
75745;BME280;64359;51.366;-0.222;2023-02-12T00:52:39;103471.30;;;21.79;48.14
75745;BME280;64359;51.366;-0.222;2023-02-12T00:53:42;103474.55;;;21.79;48.26
75745;BME280;64359;51.366;-0.222;2023-02-12T00:54:44;103468.54;;;21.78;47.90
75745;BME280;64359;51.366;-0.222;2023-02-12T00:55:46;103468.91;;;21.78;48.03
75745;BME280;64359;51.366;-0.222;2023-02-12T00:56:48;103469.85;;;21.77;47.83
75745;BME280;64359;51.366;-0.222;2023-02-12T00:57:51;103468.97;;;21.77;47.72
75745;BME280;64359;51.366;-0.222;2023-02-12T00:58:53;103464.46;;;21.76;47.85
75745;BME280;64359;51.366;-0.222;2023-02-12T00:59:55;103467.38;;;21.76;47.76
75745;BME280;64359;51.366;-0.222;2023-02-12T01:00:58;103464.23;;;21.75;47.75
75745;BME280;64359;51.366;-0.222;2023-02-12T01:02:00;103461.72;;;21.74;47.56
75745;BME280;64359;51.366;-0.222;2023-02-12T01:03:03;103464.14;;;21.74;47.58
75745;BME280;64359;51.366;-0.222;2023-02-12T01:04:06;103461.25;;;21.74;47.50
75745;BME280;64359;51.366;-0.222;2023-02-12T01:05:08;103458.96;;;21.73;47.42
75745;BME280;64359;51.366;-0.222;2023-02-12T01:06:10;103460.81;;;21.72;47.61
75745;BME280;64359;51.366;-0.222;2023-02-12T01:07:13;103458.10;;;21.72;47.50
75745;BME280;64359;51.366;-0.222;2023-02-12T01:08:16;103460.27;;;21.72;47.43
75745;BME280;64359;51.366;-0.222;2023-02-12T01:09:18;103460.84;;;21.72;47.33
75745;BME280;64359;51.366;-0.222;2023-02-12T01:10:21;103460.46;;;21.72;47.73
75745;BME280;64359;51.366;-0.222;2023-02-12T01:11:23;103457.08;;;21.72;47.74
75745;BME280;64359;51.366;-0.222;2023-02-12T01:12:26;103459.81;;;21.71;48.08
75745;BME280;64359;51.366;-0.222;2023-02-12T01:13:29;103456.45;;;21.70;48.00
75745;BME280;64359;51.366;-0.222;2023-02-12T01:14:33;103457.04;;;21.70;47.90
75745;BME280;64359;51.366;-0.222;2023-02-12T01:15:35;103459.39;;;21.70;47.88
75745;BME280;64359;51.366;-0.222;2023-02-12T01:16:38;103462.93;;;21.69;47.96
75745;BME280;64359;51.366;-0.222;2023-02-12T01:17:39;103466.24;;;21.68;47.88
75745;BME280;64359;51.366;-0.222;2023-02-12T01:18:42;103463.52;;;21.66;48.06
75745;BME280;64359;51.366;-0.222;2023-02-12T01:19:45;103470.81;;;21.66;47.98
75745;BME280;64359;51.366;-0.222;2023-02-12T01:20:47;103466.15;;;21.65;47.99
75745;BME280;64359;51.366;-0.222;2023-02-12T01:21:49;103467.31;;;21.64;48.04
75745;BME280;64359;51.366;-0.222;2023-02-12T01:22:52;103468.22;;;21.64;48.09
75745;BME280;64359;51.366;-0.222;2023-02-12T01:23:54;103468.97;;;21.64;48.08
75745;BME280;64359;51.366;-0.222;2023-02-12T01:24:57;103467.96;;;21.63;48.02
75745;BME280;64359;51.366;-0.222;2023-02-12T01:25:59;103466.20;;;21.62;48.04
75745;BME280;64359;51.366;-0.222;2023-02-12T01:27:02;103466.73;;;21.63;48.05
75745;BME280;64359;51.366;-0.222;2023-02-12T01:28:04;103466.69;;;21.61;48.14
75745;BME280;64359;51.366;-0.222;2023-02-12T01:29:07;103469.36;;;21.61;48.16
75745;BME280;64359;51.366;-0.222;2023-02-12T01:30:13;103466.69;;;21.61;48.13
75745;BME280;64359;51.366;-0.222;2023-02-12T01:31:18;103463.73;;;21.57;47.91
75745;BME280;64359;51.366;-0.222;2023-02-12T01:32:20;103468.23;;;21.60;47.91
75745;BME280;64359;51.366;-0.222;2023-02-12T01:33:23;103465.05;;;21.59;48.07
75745;BME280;64359;51.366;-0.222;2023-02-12T01:34:25;103465.05;;;21.59;48.07
75745;BME280;64359;51.366;-0.222;2023-02-12T01:35:27;103464.95;;;21.58;48.19
75745;BME280;64359;51.366;-0.222;2023-02-12T01:36:30;103463.35;;;21.58;48.03
75745;BME280;64359;51.366;-0.222;2023-02-12T01:37:35;103464.11;;;21.57;48.09
75745;BME280;64359;51.366;-0.222;2023-02-12T01:38:38;103464.17;;;21.57;48.11
75745;BME280;64359;51.366;-0.222;2023-02-12T01:39:40;103466.00;;;21.57;48.16
75745;BME280;64359;51.366;-0.222;2023-02-12T01:40:42;103466.04;;;21.56;48.15
75745;BME280;64359;51.366;-0.222;2023-02-12T01:41:45;103466.46;;;21.55;48.10
75745;BME280;64359;51.366;-0.222;2023-02-12T01:42:47;103465.02;;;21.55;48.15
75745;BME280;64359;51.366;-0.222;2023-02-12T01:44:11;103468.11;;;21.55;48.14
75745;BME280;64359;51.366;-0.222;2023-02-12T01:45:44;103472.34;;;21.54;48.21
75745;BME280;64359;51.366;-0.222;2023-02-12T01:46:49;103464.77;;;21.51;48.01
75745;BME280;64359;51.366;-0.222;2023-02-12T01:47:51;103465.00;;;21.51;48.04
75745;BME280;64359;51.366;-0.222;2023-02-12T01:48:55;103461.13;;;21.49;48.13
75745;BME280;64359;51.366;-0.222;2023-02-12T01:49:57;103466.33;;;21.50;48.11
75745;BME280;64359;51.366;-0.222;2023-02-12T01:51:01;103461.15;;;21.49;48.10
75745;BME280;64359;51.366;-0.222;2023-02-12T01:52:07;103464.95;;;21.49;48.25
75745;BME280;64359;51.366;-0.222;2023-02-12T01:53:11;103465.52;;;21.49;48.09
75745;BME280;64359;51.366;-0.222;2023-02-12T01:54:21;103465.98;;;21.48;48.11
75745;BME280;64359;51.366;-0.222;2023-02-12T01:55:27;103465.49;;;21.47;48.18
75745;BME280;64359;51.366;-0.222;2023-02-12T01:56:31;103468.02;;;21.47;48.21
75745;BME280;64359;51.366;-0.222;2023-02-12T01:57:36;103469.66;;;21.47;48.06
75745;BME280;64359;51.366;-0.222;2023-02-12T01:58:41;103472.77;;;21.46;48.02
75745;BME280;64359;51.366;-0.222;2023-02-12T01:59:45;103468.04;;;21.47;48.14
75745;BME280;64359;51.366;-0.222;2023-02-12T02:00:49;103467.69;;;21.47;48.15
75745;BME280;64359;51.366;-0.222;2023-02-12T02:01:52;103468.09;;;21.46;48.15
75745;BME280;64359;51.366;-0.222;2023-02-12T02:02:58;103466.35;;;21.45;48.09
75745;BME280;64359;51.366;-0.222;2023-02-12T02:04:03;103466.17;;;21.45;47.87
75745;BME280;64359;51.366;-0.222;2023-02-12T02:05:07;103457.88;;;21.40;47.80
75745;BME280;64359;51.366;-0.222;2023-02-12T02:06:13;103464.83;;;21.44;47.73
75745;BME280;64359;51.366;-0.222;2023-02-12T02:07:17;103461.98;;;21.43;47.68
75745;BME280;64359;51.366;-0.222;2023-02-12T02:08:19;103464.31;;;21.43;47.55
75745;BME280;64359;51.366;-0.222;2023-02-12T02:09:22;103461.96;;;21.43;47.78
75745;BME280;64359;51.366;-0.222;2023-02-12T02:10:24;103461.41;;;21.43;47.61
75745;BME280;64359;51.366;-0.222;2023-02-12T02:11:27;103462.88;;;21.43;47.52
75745;BME280;64359;51.366;-0.222;2023-02-12T02:12:48;103464.55;;;21.43;47.39
75745;BME280;64359;51.366;-0.222;2023-02-12T02:14:09;103466.15;;;21.43;47.47
75745;BME280;64359;51.366;-0.222;2023-02-12T02:15:30;103465.09;;;21.43;47.31
75745;BME280;64359;51.366;-0.222;2023-02-12T02:16:35;103464.80;;;21.42;47.31
75745;BME280;64359;51.366;-0.222;2023-02-12T02:17:45;103463.86;;;21.42;47.11
75745;BME280;64359;51.366;-0.222;2023-02-12T02:18:56;103460.77;;;21.42;47.19
75745;BME280;64359;51.366;-0.222;2023-02-12T02:21:45;103460.09;;;21.42;47.04
75745;BME280;64359;51.366;-0.222;2023-02-12T02:23:00;103460.13;;;21.42;47.50
75745;BME280;64359;51.366;-0.222;2023-02-12T02:24:29;103464.43;;;21.42;47.40
75745;BME280;64359;51.366;-0.222;2023-02-12T02:25:59;103466.53;;;21.41;47.50
75745;BME280;64359;51.366;-0.222;2023-02-12T02:27:15;103465.50;;;21.40;47.33
75745;BME280;64359;51.366;-0.222;2023-02-12T02:28:35;103465.13;;;21.40;47.64
75745;BME280;64359;51.366;-0.222;2023-02-12T02:31:17;103463.09;;;21.39;47.44
75745;BME280;64359;51.366;-0.222;2023-02-12T02:32:23;103465.01;;;21.40;47.58
75745;BME280;64359;51.366;-0.222;2023-02-12T02:33:36;103462.49;;;21.39;47.61
75745;BME280;64359;51.366;-0.222;2023-02-12T02:34:49;103463.97;;;21.39;47.65
75745;BME280;64359;51.366;-0.222;2023-02-12T02:35:57;103464.00;;;21.39;47.70
75745;BME280;64359;51.366;-0.222;2023-02-12T02:37:06;103464.71;;;21.39;47.74
75745;BME280;64359;51.366;-0.222;2023-02-12T02:38:19;103469.62;;;21.38;47.52
75745;BME280;64359;51.366;-0.222;2023-02-12T02:39:27;103461.04;;;21.35;47.72
75745;BME280;64359;51.366;-0.222;2023-02-12T02:40:37;103465.27;;;21.39;47.75
75745;BME280;64359;51.366;-0.222;2023-02-12T02:41:41;103466.15;;;21.39;47.74
75745;BME280;64359;51.366;-0.222;2023-02-12T02:42:49;103461.34;;;21.38;47.73
75745;BME280;64359;51.366;-0.222;2023-02-12T02:43:53;103460.23;;;21.38;47.86
75745;BME280;64359;51.366;-0.222;2023-02-12T02:44:58;103458.66;;;21.38;47.79
75745;BME280;64359;51.366;-0.222;2023-02-12T02:46:05;103457.36;;;21.38;47.62
75745;BME280;64359;51.366;-0.222;2023-02-12T02:47:10;103464.96;;;21.38;47.61
75745;BME280;64359;51.366;-0.222;2023-02-12T02:48:17;103462.05;;;21.38;47.75
75745;BME280;64359;51.366;-0.222;2023-02-12T02:49:26;103460.89;;;21.39;47.67
75745;BME280;64359;51.366;-0.222;2023-02-12T02:50:31;103461.15;;;21.38;47.76
75745;BME280;64359;51.366;-0.222;2023-02-12T02:51:40;103459.27;;;21.39;47.62
75745;BME280;64359;51.366;-0.222;2023-02-12T02:52:48;103458.41;;;21.39;47.63
75745;BME280;64359;51.366;-0.222;2023-02-12T02:53:54;103456.02;;;21.39;47.95
75745;BME280;64359;51.366;-0.222;2023-02-12T02:55:02;103453.67;;;21.39;47.54
75745;BME280;64359;51.366;-0.222;2023-02-12T02:56:11;103451.95;;;21.40;47.32
75745;BME280;64359;51.366;-0.222;2023-02-12T02:57:18;103447.14;;;21.39;47.67
75745;BME280;64359;51.366;-0.222;2023-02-12T02:58:24;103449.20;;;21.40;47.64
75745;BME280;64359;51.366;-0.222;2023-02-12T02:59:31;103447.48;;;21.41;47.37
75745;BME280;64359;51.366;-0.222;2023-02-12T03:00:39;103445.62;;;21.42;47.35
75745;BME280;64359;51.366;-0.222;2023-02-12T03:01:44;103445.02;;;21.43;47.49
75745;BME280;64359;51.366;-0.222;2023-02-12T03:02:51;103443.15;;;21.43;47.63
75745;BME280;64359;51.366;-0.222;2023-02-12T03:04:00;103444.41;;;21.44;47.57
75745;BME280;64359;51.366;-0.222;2023-02-12T03:05:09;103438.62;;;21.44;47.25
75745;BME280;64359;51.366;-0.222;2023-02-12T03:06:18;103440.02;;;21.44;47.33
75745;BME280;64359;51.366;-0.222;2023-02-12T03:07:26;103442.10;;;21.45;47.52
75745;BME280;64359;51.366;-0.222;2023-02-12T03:08:33;103442.83;;;21.46;47.36
75745;BME280;64359;51.366;-0.222;2023-02-12T03:09:40;103445.16;;;21.45;47.38
75745;BME280;64359;51.366;-0.222;2023-02-12T03:10:46;103445.43;;;21.47;47.45
75745;BME280;64359;51.366;-0.222;2023-02-12T03:11:49;103446.34;;;21.47;47.23
75745;BME280;64359;51.366;-0.222;2023-02-12T03:12:51;103441.55;;;21.48;47.24
75745;BME280;64359;51.366;-0.222;2023-02-12T03:13:59;103441.83;;;21.47;47.43
75745;BME280;64359;51.366;-0.222;2023-02-12T03:15:09;103446.12;;;21.47;47.20
75745;BME280;64359;51.366;-0.222;2023-02-12T03:16:16;103442.55;;;21.47;47.36
75745;BME280;64359;51.366;-0.222;2023-02-12T03:17:22;103439.80;;;21.47;47.04
75745;BME280;64359;51.366;-0.222;2023-02-12T03:18:29;103435.47;;;21.47;46.93
75745;BME280;64359;51.366;-0.222;2023-02-12T03:19:36;103430.36;;;21.48;46.83
75745;BME280;64359;51.366;-0.222;2023-02-12T03:20:44;103429.25;;;21.48;46.68
75745;BME280;64359;51.366;-0.222;2023-02-12T03:21:49;103426.88;;;21.48;46.84
75745;BME280;64359;51.366;-0.222;2023-02-12T03:22:57;103428.14;;;21.48;46.74
75745;BME280;64359;51.366;-0.222;2023-02-12T03:24:04;103427.94;;;21.48;46.75
75745;BME280;64359;51.366;-0.222;2023-02-12T03:25:14;103427.60;;;21.48;46.72
75745;BME280;64359;51.366;-0.222;2023-02-12T03:26:22;103426.86;;;21.49;46.45
75745;BME280;64359;51.366;-0.222;2023-02-12T03:27:29;103432.43;;;21.49;46.55
75745;BME280;64359;51.366;-0.222;2023-02-12T03:28:35;103430.45;;;21.49;46.69
75745;BME280;64359;51.366;-0.222;2023-02-12T03:29:38;103431.02;;;21.48;46.73
75745;BME280;64359;51.366;-0.222;2023-02-12T03:30:47;103423.86;;;21.46;46.47
75745;BME280;64359;51.366;-0.222;2023-02-12T03:32:07;103428.75;;;21.50;46.63
75745;BME280;64359;51.366;-0.222;2023-02-12T03:33:19;103429.77;;;21.48;46.82
75745;BME280;64359;51.366;-0.222;2023-02-12T03:34:29;103429.05;;;21.48;46.62
75745;BME280;64359;51.366;-0.222;2023-02-12T03:35:42;103434.92;;;21.47;46.66
75745;BME280;64359;51.366;-0.222;2023-02-12T03:36:48;103432.73;;;21.48;46.52
75745;BME280;64359;51.366;-0.222;2023-02-12T03:37:57;103429.90;;;21.47;46.68
75745;BME280;64359;51.366;-0.222;2023-02-12T03:39:04;103429.36;;;21.47;46.61
75745;BME280;64359;51.366;-0.222;2023-02-12T03:40:16;103428.10;;;21.47;46.69
75745;BME280;64359;51.366;-0.222;2023-02-12T03:41:23;103430.30;;;21.46;46.75
75745;BME280;64359;51.366;-0.222;2023-02-12T03:42:35;103426.62;;;21.47;46.89
75745;BME280;64359;51.366;-0.222;2023-02-12T03:43:47;103427.56;;;21.47;47.00
75745;BME280;64359;51.366;-0.222;2023-02-12T03:44:53;103418.11;;;21.38;47.14
75745;BME280;64359;51.366;-0.222;2023-02-12T03:46:01;103427.58;;;21.46;46.80
75745;BME280;64359;51.366;-0.222;2023-02-12T03:47:11;103428.30;;;21.46;46.74
75745;BME280;64359;51.366;-0.222;2023-02-12T03:48:21;103426.98;;;21.47;47.09
75745;BME280;64359;51.366;-0.222;2023-02-12T03:49:29;103425.59;;;21.46;47.22
75745;BME280;64359;51.366;-0.222;2023-02-12T03:50:38;103423.71;;;21.47;46.93
75745;BME280;64359;51.366;-0.222;2023-02-12T03:51:44;103424.57;;;21.48;47.00
75745;BME280;64359;51.366;-0.222;2023-02-12T03:52:47;103423.06;;;21.48;47.04
75745;BME280;64359;51.366;-0.222;2023-02-12T03:53:51;103427.69;;;21.49;46.94
75745;BME280;64359;51.366;-0.222;2023-02-12T03:54:53;103427.91;;;21.49;47.07
75745;BME280;64359;51.366;-0.222;2023-02-12T03:55:58;103424.39;;;21.50;47.01
75745;BME280;64359;51.366;-0.222;2023-02-12T03:57:06;103425.41;;;21.50;47.03
75745;BME280;64359;51.366;-0.222;2023-02-12T03:58:15;103427.17;;;21.51;46.88
75745;BME280;64359;51.366;-0.222;2023-02-12T03:59:21;103427.70;;;21.51;47.01
75745;BME280;64359;51.366;-0.222;2023-02-12T04:00:25;103426.85;;;21.53;47.07
75745;BME280;64359;51.366;-0.222;2023-02-12T04:01:28;103425.88;;;21.54;47.29
75745;BME280;64359;51.366;-0.222;2023-02-12T04:02:33;103423.66;;;21.55;47.15
75745;BME280;64359;51.366;-0.222;2023-02-12T04:03:36;103420.27;;;21.56;46.99
75745;BME280;64359;51.366;-0.222;2023-02-12T04:04:38;103420.33;;;21.55;47.10
75745;BME280;64359;51.366;-0.222;2023-02-12T04:05:40;103422.39;;;21.57;47.20
75745;BME280;64359;51.366;-0.222;2023-02-12T04:06:43;103426.67;;;21.57;47.06
75745;BME280;64359;51.366;-0.222;2023-02-12T04:07:47;103426.50;;;21.57;47.01
75745;BME280;64359;51.366;-0.222;2023-02-12T04:08:50;103428.83;;;21.58;47.07
75745;BME280;64359;51.366;-0.222;2023-02-12T04:09:53;103424.05;;;21.54;46.92
75745;BME280;64359;51.366;-0.222;2023-02-12T04:11:03;103433.08;;;21.58;47.22
75745;BME280;64359;51.366;-0.222;2023-02-12T04:12:25;103429.70;;;21.60;47.02
75745;BME280;64359;51.366;-0.222;2023-02-12T04:13:38;103429.48;;;21.60;46.92
75745;BME280;64359;51.366;-0.222;2023-02-12T04:14:48;103427.92;;;21.60;47.07
75745;BME280;64359;51.366;-0.222;2023-02-12T04:15:56;103430.47;;;21.59;46.82
75745;BME280;64359;51.366;-0.222;2023-02-12T04:17:05;103422.38;;;21.59;46.78
75745;BME280;64359;51.366;-0.222;2023-02-12T04:18:10;103422.67;;;21.59;46.75
75745;BME280;64359;51.366;-0.222;2023-02-12T04:19:22;103425.84;;;21.59;46.96
75745;BME280;64359;51.366;-0.222;2023-02-12T04:20:40;103425.08;;;21.59;46.77
75745;BME280;64359;51.366;-0.222;2023-02-12T04:21:55;103425.07;;;21.59;46.87
75745;BME280;64359;51.366;-0.222;2023-02-12T04:23:09;103427.80;;;21.59;46.96
75745;BME280;64359;51.366;-0.222;2023-02-12T04:24:18;103427.44;;;21.59;46.76
75745;BME280;64359;51.366;-0.222;2023-02-12T04:25:29;103434.16;;;21.61;46.80
75745;BME280;64359;51.366;-0.222;2023-02-12T04:26:38;103431.84;;;21.60;47.00
75745;BME280;64359;51.366;-0.222;2023-02-12T04:27:49;103433.05;;;21.61;46.88
75745;BME280;64359;51.366;-0.222;2023-02-12T04:29:07;103433.31;;;21.62;46.81
75745;BME280;64359;51.366;-0.222;2023-02-12T04:30:16;103431.71;;;21.62;46.84
75745;BME280;64359;51.366;-0.222;2023-02-12T04:31:23;103432.49;;;21.63;46.46
75745;BME280;64359;51.366;-0.222;2023-02-12T04:32:34;103433.02;;;21.63;46.71
75745;BME280;64359;51.366;-0.222;2023-02-12T04:33:46;103430.39;;;21.64;46.32
75745;BME280;64359;51.366;-0.222;2023-02-12T04:34:56;103429.66;;;21.65;46.62
75745;BME280;64359;51.366;-0.222;2023-02-12T04:36:02;103427.40;;;21.66;46.44
75745;BME280;64359;51.366;-0.222;2023-02-12T04:37:13;103428.27;;;21.66;46.22
75745;BME280;64359;51.366;-0.222;2023-02-12T04:38:20;103428.55;;;21.67;46.10
75745;BME280;64359;51.366;-0.222;2023-02-12T04:39:27;103425.30;;;21.67;46.16
75745;BME280;64359;51.366;-0.222;2023-02-12T04:40:30;103425.32;;;21.69;46.07
75745;BME280;64359;51.366;-0.222;2023-02-12T04:41:33;103425.95;;;21.70;46.03
75745;BME280;64359;51.366;-0.222;2023-02-12T04:42:41;103423.92;;;21.70;45.92
75745;BME280;64359;51.366;-0.222;2023-02-12T04:43:44;103422.98;;;21.70;46.09
75745;BME280;64359;51.366;-0.222;2023-02-12T04:44:47;103420.10;;;21.70;46.08
75745;BME280;64359;51.366;-0.222;2023-02-12T04:45:49;103421.54;;;21.71;45.89
75745;BME280;64359;51.366;-0.222;2023-02-12T04:46:52;103423.63;;;21.71;45.74
75745;BME280;64359;51.366;-0.222;2023-02-12T04:47:54;103423.42;;;21.72;45.99
75745;BME280;64359;51.366;-0.222;2023-02-12T04:48:58;103424.70;;;21.71;45.88
75745;BME280;64359;51.366;-0.222;2023-02-12T04:50:00;103426.45;;;21.72;45.79
75745;BME280;64359;51.366;-0.222;2023-02-12T04:51:03;103430.08;;;21.72;45.93
75745;BME280;64359;51.366;-0.222;2023-02-12T04:52:06;103429.66;;;21.73;45.78
75745;BME280;64359;51.366;-0.222;2023-02-12T04:53:08;103431.46;;;21.73;46.04
75745;BME280;64359;51.366;-0.222;2023-02-12T04:54:11;103424.69;;;21.72;46.02
75745;BME280;64359;51.366;-0.222;2023-02-12T04:55:13;103430.83;;;21.72;46.06
75745;BME280;64359;51.366;-0.222;2023-02-12T04:56:16;103429.60;;;21.72;46.19
75745;BME280;64359;51.366;-0.222;2023-02-12T04:57:18;103431.07;;;21.71;45.85
75745;BME280;64359;51.366;-0.222;2023-02-12T04:58:21;103431.23;;;21.71;46.07
75745;BME280;64359;51.366;-0.222;2023-02-12T04:59:23;103429.77;;;21.72;46.07
75745;BME280;64359;51.366;-0.222;2023-02-12T05:00:25;103431.59;;;21.72;46.21
75745;BME280;64359;51.366;-0.222;2023-02-12T05:01:28;103434.90;;;21.71;46.21
75745;BME280;64359;51.366;-0.222;2023-02-12T05:02:30;103432.63;;;21.72;46.14
75745;BME280;64359;51.366;-0.222;2023-02-12T05:03:34;103435.70;;;21.72;46.13
75745;BME280;64359;51.366;-0.222;2023-02-12T05:04:36;103434.99;;;21.72;46.27
75745;BME280;64359;51.366;-0.222;2023-02-12T05:05:38;103436.33;;;21.71;46.08
75745;BME280;64359;51.366;-0.222;2023-02-12T05:06:41;103433.82;;;21.71;46.21
75745;BME280;64359;51.366;-0.222;2023-02-12T05:07:44;103433.02;;;21.71;46.03
75745;BME280;64359;51.366;-0.222;2023-02-12T05:08:46;103433.41;;;21.71;46.23
75745;BME280;64359;51.366;-0.222;2023-02-12T05:09:48;103430.14;;;21.72;46.16
75745;BME280;64359;51.366;-0.222;2023-02-12T05:10:51;103427.73;;;21.72;46.03
75745;BME280;64359;51.366;-0.222;2023-02-12T05:11:53;103427.89;;;21.72;46.16
75745;BME280;64359;51.366;-0.222;2023-02-12T05:12:55;103428.30;;;21.72;46.30
75745;BME280;64359;51.366;-0.222;2023-02-12T05:13:58;103425.61;;;21.71;46.15
75745;BME280;64359;51.366;-0.222;2023-02-12T05:15:00;103428.19;;;21.71;46.43
75745;BME280;64359;51.366;-0.222;2023-02-12T05:16:04;103429.11;;;21.71;46.12
75745;BME280;64359;51.366;-0.222;2023-02-12T05:17:07;103428.29;;;21.70;46.22
75745;BME280;64359;51.366;-0.222;2023-02-12T05:18:09;103431.18;;;21.70;46.31
75745;BME280;64359;51.366;-0.222;2023-02-12T05:19:12;103430.15;;;21.69;46.19
75745;BME280;64359;51.366;-0.222;2023-02-12T05:20:14;103430.13;;;21.70;46.39
75745;BME280;64359;51.366;-0.222;2023-02-12T05:21:17;103430.34;;;21.69;46.26
75745;BME280;64359;51.366;-0.222;2023-02-12T05:22:19;103431.41;;;21.69;46.20
75745;BME280;64359;51.366;-0.222;2023-02-12T05:23:22;103429.45;;;21.69;46.18
75745;BME280;64359;51.366;-0.222;2023-02-12T05:24:24;103427.29;;;21.69;46.21
75745;BME280;64359;51.366;-0.222;2023-02-12T05:25:26;103427.71;;;21.68;46.21
75745;BME280;64359;51.366;-0.222;2023-02-12T05:26:29;103431.58;;;21.69;46.15
75745;BME280;64359;51.366;-0.222;2023-02-12T05:27:31;103428.34;;;21.69;46.11
75745;BME280;64359;51.366;-0.222;2023-02-12T05:28:34;103429.09;;;21.69;46.00
75745;BME280;64359;51.366;-0.222;2023-02-12T05:29:36;103427.46;;;21.69;46.02
75745;BME280;64359;51.366;-0.222;2023-02-12T05:30:39;103431.03;;;21.69;45.97
75745;BME280;64359;51.366;-0.222;2023-02-12T05:31:41;103432.17;;;21.69;46.01
75745;BME280;64359;51.366;-0.222;2023-02-12T05:32:43;103427.45;;;21.69;46.13
75745;BME280;64359;51.366;-0.222;2023-02-12T05:33:47;103429.09;;;21.69;46.06
75745;BME280;64359;51.366;-0.222;2023-02-12T05:34:50;103428.57;;;21.69;46.15
75745;BME280;64359;51.366;-0.222;2023-02-12T05:35:52;103419.31;;;21.65;46.18
75745;BME280;64359;51.366;-0.222;2023-02-12T05:36:54;103425.17;;;21.68;46.13
75745;BME280;64359;51.366;-0.222;2023-02-12T05:37:57;103424.42;;;21.68;45.59
75745;BME280;64359;51.366;-0.222;2023-02-12T05:38:59;103423.84;;;21.69;45.93
75745;BME280;64359;51.366;-0.222;2023-02-12T05:40:01;103423.48;;;21.69;46.10
75745;BME280;64359;51.366;-0.222;2023-02-12T05:41:05;103423.29;;;21.69;45.84